createdAt,value
2018-05-24T00:02:03.897Z,93590.56
2018-05-24T00:04:30.330Z,93588.18
2018-05-24T00:06:56.663Z,93591.86
2018-05-24T00:09:22.968Z,93589.05
2018-05-24T00:11:49.292Z,93588.92
2018-05-24T00:14:15.687Z,93584.55
2018-05-24T00:16:42.064Z,93589.64
2018-05-24T00:19:08.451Z,93587.44
2018-05-24T00:21:34.908Z,93586.02
2018-05-24T00:24:01.313Z,93591.82
2018-05-24T00:26:27.701Z,93589.92
2018-05-24T00:28:54.085Z,93587.94
2018-05-24T00:31:20.410Z,93590.63
2018-05-24T00:33:46.718Z,93588.59
2018-05-24T00:36:12.998Z,93586.14
2018-05-24T00:38:39.352Z,93582.62
2018-05-24T00:41:05.648Z,93574.44
2018-05-24T00:43:32.008Z,93568.52
2018-05-24T00:45:58.350Z,93568.67
2018-05-24T00:48:24.705Z,93570.83
2018-05-24T00:50:51.056Z,93561.02
2018-05-24T00:53:17.449Z,93564.21
2018-05-24T00:55:43.727Z,93557.55
2018-05-24T00:58:10.014Z,93553.70
2018-05-24T01:00:36.345Z,93550.20
2018-05-24T01:03:02.769Z,93550.55
2018-05-24T01:05:29.217Z,93549.62
2018-05-24T01:07:55.626Z,93548.00
2018-05-24T01:10:21.949Z,93552.07
2018-05-24T01:12:48.488Z,93560.73
2018-05-24T01:15:14.906Z,93556.64
2018-05-24T01:17:41.204Z,93562.55
2018-05-24T01:20:07.564Z,93564.67
2018-05-24T01:22:34.017Z,93561.84
2018-05-24T01:25:00.413Z,93559.51
2018-05-24T01:27:26.744Z,93564.15
2018-05-24T01:29:53.026Z,93568.14
2018-05-24T01:32:19.487Z,93567.02
2018-05-24T01:34:45.768Z,93571.72
2018-05-24T01:40:12.384Z,93558.84
2018-05-24T01:42:38.845Z,93551.75
2018-05-24T01:45:05.120Z,93551.75
2018-05-24T01:47:31.419Z,93557.71
2018-05-24T01:49:57.751Z,93557.25
2018-05-24T01:52:24.156Z,93557.12
2018-05-24T01:54:50.485Z,93560.06
2018-05-24T01:57:17.056Z,93563.41
2018-05-24T01:59:43.442Z,93562.83
2018-05-24T02:02:09.984Z,93567.27
2018-05-24T02:04:36.482Z,93564.93
2018-05-24T02:07:02.857Z,93569.67
2018-05-24T02:09:29.241Z,93571.77
2018-05-24T02:11:55.657Z,93565.55
2018-05-24T02:14:21.987Z,93565.89
2018-05-24T02:16:48.350Z,93570.80
2018-05-24T02:19:15.144Z,93575.23
2018-05-24T02:21:41.557Z,93572.80
2018-05-24T02:24:07.829Z,93579.25
2018-05-24T02:26:34.129Z,93574.34
2018-05-24T02:29:00.442Z,93572.73
2018-05-24T02:31:26.750Z,93574.11
2018-05-24T02:33:53.176Z,93573.38
2018-05-24T02:36:19.494Z,93573.38
2018-05-24T02:38:45.841Z,93577.70
2018-05-24T02:41:12.168Z,93579.22
2018-05-24T02:43:38.500Z,93578.33
2018-05-24T02:46:04.842Z,93573.80
2018-05-24T02:48:31.325Z,93570.16
2018-05-24T02:50:57.646Z,93573.97
2018-05-24T02:53:24.630Z,93574.17
2018-05-24T02:55:50.954Z,93576.67
2018-05-24T02:58:17.240Z,93575.23
2018-05-24T03:00:43.624Z,93576.58
2018-05-24T03:03:10.012Z,93569.23
2018-05-24T03:05:36.457Z,93564.84
2018-05-24T03:08:02.873Z,93567.09
2018-05-24T03:10:29.197Z,93569.16
2018-05-24T03:12:55.509Z,93571.88
2018-05-24T03:15:21.815Z,93563.46
2018-05-24T03:17:48.191Z,93569.78
2018-05-24T03:20:14.578Z,93570.02
2018-05-24T03:22:40.937Z,93569.71
2018-05-24T03:25:07.274Z,93566.69
2018-05-24T03:27:33.605Z,93562.67
2018-05-24T03:29:59.930Z,93569.20
2018-05-24T03:32:26.365Z,93569.33
2018-05-24T03:34:53.294Z,93567.92
2018-05-24T03:37:19.860Z,93565.14
2018-05-24T03:39:46.225Z,93565.48
2018-05-24T03:42:12.680Z,93566.68
2018-05-24T03:44:39.162Z,93564.55
2018-05-24T03:47:05.620Z,93564.51
2018-05-24T03:49:32.071Z,93567.22
2018-05-24T03:51:58.467Z,93569.86
2018-05-24T03:54:25.127Z,93561.82
2018-05-24T03:56:51.455Z,93560.88
2018-05-24T04:02:38.968Z,93560.75
2018-05-24T04:05:05.363Z,93565.85
2018-05-24T04:07:31.623Z,93566.66
2018-05-24T04:09:58.140Z,93551.23
2018-05-24T04:12:24.482Z,93553.58
2018-05-24T04:14:50.777Z,93561.31
2018-05-24T04:17:17.225Z,93554.09
2018-05-24T04:19:44.024Z,93558.09
2018-05-24T04:22:10.659Z,93561.18
2018-05-24T04:24:37.011Z,93564.81
2018-05-24T04:27:03.384Z,93560.48
2018-05-24T04:29:29.759Z,93558.06
2018-05-24T04:31:56.207Z,93565.05
2018-05-24T04:34:22.515Z,93560.89
2018-05-24T04:36:48.917Z,93566.63
2018-05-24T04:39:15.297Z,93570.64
2018-05-24T04:41:41.799Z,93576.37
2018-05-24T04:44:08.591Z,93576.31
2018-05-24T04:46:34.926Z,93574.13
2018-05-24T04:49:01.372Z,93583.30
2018-05-24T04:51:27.709Z,93580.97
2018-05-24T04:53:54.089Z,93579.36
2018-05-24T04:56:20.806Z,93583.72
2018-05-24T04:58:47.401Z,93581.56
2018-05-24T05:01:14.026Z,93586.37
2018-05-24T05:03:40.449Z,93587.91
2018-05-24T05:06:07.578Z,93589.58
2018-05-24T05:08:34.067Z,93579.14
2018-05-24T05:11:00.490Z,93576.98
2018-05-24T05:13:26.958Z,93581.38
2018-05-24T05:15:53.553Z,93574.23
2018-05-24T05:18:20.179Z,93577.94
2018-05-24T05:20:47.172Z,93580.80
2018-05-24T05:23:13.944Z,93579.56
2018-05-24T05:25:40.413Z,93581.73
2018-05-24T05:28:07.055Z,93579.95
2018-05-24T05:30:33.539Z,93578.13
2018-05-24T05:33:00.053Z,93581.16
2018-05-24T05:35:27.204Z,93581.09
2018-05-24T05:37:53.634Z,93580.44
2018-05-24T05:40:20.221Z,93590.11
2018-05-24T05:42:46.669Z,93586.47
2018-05-24T05:45:12.987Z,93594.89
2018-05-24T05:47:39.409Z,93587.53
2018-05-24T05:50:05.860Z,93584.93
2018-05-24T05:52:32.402Z,93588.08
2018-05-24T05:54:58.819Z,93594.86
2018-05-24T05:57:25.969Z,93604.28
2018-05-24T05:59:52.402Z,93599.44
2018-05-24T06:02:19.308Z,93603.57
2018-05-24T06:04:45.873Z,93600.88
2018-05-24T06:07:12.350Z,93605.10
2018-05-24T06:09:38.741Z,93605.95
2018-05-24T06:12:05.232Z,93604.30
2018-05-24T06:14:31.941Z,93606.47
2018-05-24T06:16:58.242Z,93602.01
2018-05-24T06:19:24.822Z,93607.28
2018-05-24T06:21:51.477Z,93601.49
2018-05-24T06:24:17.941Z,93603.25
2018-05-24T06:26:44.461Z,93605.47
2018-05-24T06:29:11.136Z,93609.34
2018-05-24T06:31:37.680Z,93612.44
2018-05-24T06:34:04.444Z,93613.15
2018-05-24T06:36:31.406Z,93611.34
2018-05-24T06:38:59.541Z,93606.63
2018-05-24T06:41:26.214Z,93612.51
2018-05-24T06:43:52.983Z,93614.03
2018-05-24T06:46:19.537Z,93613.64
2018-05-24T06:48:46.422Z,93613.54
2018-05-24T06:51:12.938Z,93616.19
2018-05-24T06:53:39.916Z,93620.63
2018-05-24T06:56:07.132Z,93620.62
2018-05-24T06:58:33.555Z,93619.50
2018-05-24T07:00:59.969Z,93623.80
2018-05-24T07:03:26.633Z,93621.66
2018-05-24T07:05:53.228Z,93616.05
2018-05-24T07:08:19.568Z,93612.38
2018-05-24T07:10:46.054Z,93617.22
2018-05-24T07:13:12.474Z,93613.55
2018-05-24T07:15:38.919Z,93611.84
2018-05-24T07:18:05.311Z,93613.73
2018-05-24T07:20:31.735Z,93623.34
2018-05-24T07:22:58.089Z,93614.54
2018-05-24T07:25:24.513Z,93617.23
2018-05-24T07:27:50.933Z,93611.84
2018-05-24T07:30:17.249Z,93612.12
2018-05-24T07:32:43.647Z,93610.08
2018-05-24T07:35:10.275Z,93612.80
2018-05-24T07:37:36.710Z,93613.37
2018-05-24T07:40:03.195Z,93611.65
2018-05-24T07:42:29.602Z,93612.73
2018-05-24T07:44:56.130Z,93617.91
2018-05-24T07:47:22.669Z,93614.39
2018-05-24T07:49:49.053Z,93609.92
2018-05-24T07:52:15.590Z,93610.19
2018-05-24T07:54:42.077Z,93609.31
2018-05-24T07:57:08.704Z,93616.94
2018-05-24T07:59:35.174Z,93612.55
2018-05-24T08:02:01.616Z,93606.96
2018-05-24T08:04:28.283Z,93611.03
2018-05-24T08:06:54.697Z,93612.41
2018-05-24T08:09:21.032Z,93615.80
2018-05-24T08:11:47.407Z,93611.39
2018-05-24T08:14:13.738Z,93609.70
2018-05-24T08:16:40.010Z,93614.48
2018-05-24T08:19:06.377Z,93606.87
2018-05-24T08:21:32.797Z,93609.02
2018-05-24T08:23:59.287Z,93605.56
2018-05-24T08:26:25.801Z,93606.56
2018-05-24T08:28:52.259Z,93600.06
2018-05-24T08:31:18.643Z,93604.09
2018-05-24T08:33:45.006Z,93602.28
2018-05-24T08:36:11.438Z,93605.84
2018-05-24T08:38:37.885Z,93604.61
2018-05-24T08:41:04.341Z,93611.29
2018-05-24T08:43:30.721Z,93609.34
2018-05-24T08:45:57.079Z,93604.80
2018-05-24T08:48:23.433Z,93600.15
2018-05-24T08:50:49.864Z,93598.23
2018-05-24T08:53:16.855Z,93594.30
2018-05-24T08:55:43.229Z,93598.16
2018-05-24T08:58:09.690Z,93595.54
2018-05-24T09:00:36.094Z,93593.61
2018-05-24T09:03:02.455Z,93596.52
2018-05-24T09:05:29.004Z,93591.92
2018-05-24T09:07:55.471Z,93586.77
2018-05-24T09:10:21.962Z,93589.05
2018-05-24T09:12:48.515Z,93587.34
2018-05-24T09:15:15.083Z,93583.87
2018-05-24T09:17:41.557Z,93582.77
2018-05-24T09:20:22.058Z,93581.80
2018-05-24T09:22:51.542Z,93579.96
2018-05-24T09:25:17.992Z,93576.27
2018-05-24T09:27:44.385Z,93576.48
2018-05-24T09:30:10.872Z,93575.69
2018-05-24T09:32:37.270Z,93574.50
2018-05-24T09:35:05.100Z,93572.03
2018-05-24T09:37:31.547Z,93568.02
2018-05-24T09:39:59.465Z,93565.88
2018-05-24T09:42:26.769Z,93569.39
2018-05-24T09:44:53.224Z,93566.89
2018-05-24T09:47:19.649Z,93556.27
2018-05-24T09:49:46.119Z,93556.69
2018-05-24T09:52:12.550Z,93544.31
2018-05-24T09:54:39.130Z,93540.28
2018-05-24T09:57:05.598Z,93538.78
2018-05-24T09:59:32.103Z,93530.70
2018-05-24T10:01:58.557Z,93530.85
2018-05-24T10:04:25.056Z,93527.95
2018-05-24T10:06:51.547Z,93526.54
2018-05-24T10:09:18.111Z,93527.64
2018-05-24T10:11:45.290Z,93529.45
2018-05-24T10:14:24.005Z,93524.16
2018-05-24T10:16:53.792Z,93529.27
2018-05-24T10:19:20.334Z,93531.84
2018-05-24T10:21:46.898Z,93521.12
2018-05-24T10:24:13.475Z,93522.45
2018-05-24T10:26:40.070Z,93516.59
2018-05-24T10:29:06.734Z,93509.10
2018-05-24T10:31:33.422Z,93516.45
2018-05-24T10:33:59.827Z,93518.85
2018-05-24T10:36:26.278Z,93510.34
2018-05-24T10:38:52.929Z,93512.92
2018-05-24T10:41:19.349Z,93507.13
2018-05-24T10:43:45.758Z,93506.52
2018-05-24T10:46:12.326Z,93498.43
2018-05-24T10:48:38.933Z,93491.03
2018-05-24T10:51:05.770Z,93484.53
2018-05-24T10:53:32.785Z,93481.70
2018-05-24T10:55:59.637Z,93475.36
2018-05-24T10:58:26.347Z,93465.10
2018-05-24T11:00:52.955Z,93462.72
2018-05-24T11:03:19.636Z,93463.20
2018-05-24T11:05:46.252Z,93468.42
2018-05-24T11:08:12.841Z,93470.73
2018-05-24T11:10:39.387Z,93476.92
2018-05-24T11:13:06.526Z,93477.06
2018-05-24T11:15:33.273Z,93478.38
2018-05-24T11:17:59.867Z,93461.70
2018-05-24T11:20:26.429Z,93466.64
2018-05-24T11:22:52.971Z,93470.59
2018-05-24T11:25:19.454Z,93472.05
2018-05-24T11:27:45.785Z,93462.97
2018-05-24T11:30:12.245Z,93461.16
2018-05-24T11:32:38.688Z,93471.97
2018-05-24T11:35:05.073Z,93476.52
2018-05-24T11:37:31.444Z,93480.38
2018-05-24T11:39:58.008Z,93480.16
2018-05-24T11:42:24.856Z,93483.77
2018-05-24T11:44:51.497Z,93490.31
2018-05-24T11:47:17.985Z,93493.30
2018-05-24T11:49:44.501Z,93492.55
2018-05-24T11:52:10.969Z,93500.44
2018-05-24T11:54:37.400Z,93498.30
2018-05-24T11:57:03.866Z,93498.14
2018-05-24T11:59:30.242Z,93502.02
2018-05-24T12:01:56.663Z,93510.98
2018-05-24T12:04:23.032Z,93506.25
2018-05-24T12:06:49.441Z,93511.20
2018-05-24T12:09:15.899Z,93500.68
2018-05-24T12:11:42.342Z,93502.45
2018-05-24T12:14:08.947Z,93496.59
2018-05-24T12:16:35.537Z,93491.31
2018-05-24T12:19:02.085Z,93478.68
2018-05-24T12:21:28.599Z,93475.27
2018-05-24T12:23:55.335Z,93472.17
2018-05-24T12:26:21.893Z,93477.70
2018-05-24T12:28:48.455Z,93471.35
2018-05-24T12:31:14.968Z,93468.69
2018-05-24T12:33:41.467Z,93465.45
2018-05-24T12:36:08.161Z,93468.08
2018-05-24T12:38:34.678Z,93467.95
2018-05-24T12:41:01.137Z,93468.91
2018-05-24T12:43:27.602Z,93463.45
2018-05-24T12:45:54.087Z,93462.63
2018-05-24T12:48:20.605Z,93461.39
2018-05-24T12:50:47.298Z,93457.72
2018-05-24T12:53:14.066Z,93465.08
2018-05-24T12:55:40.619Z,93470.20
2018-05-24T12:58:07.100Z,93467.39
2018-05-24T13:00:34.264Z,93475.94
2018-05-24T13:03:00.813Z,93471.20
2018-05-24T13:05:27.270Z,93470.39
2018-05-24T13:07:53.835Z,93468.03
2018-05-24T13:10:20.364Z,93461.91
2018-05-24T13:12:46.815Z,93467.48
2018-05-24T13:15:13.334Z,93467.13
2018-05-24T13:17:39.900Z,93469.23
2018-05-24T13:20:06.327Z,93473.91
2018-05-24T13:22:32.711Z,93467.13
2018-05-24T13:24:59.471Z,93471.20
2018-05-24T13:27:26.374Z,93473.68
2018-05-24T13:29:52.832Z,93483.66
2018-05-24T13:32:19.571Z,93478.25
2018-05-24T13:34:46.076Z,93476.60
2018-05-24T13:37:12.517Z,93480.01
2018-05-24T13:39:38.904Z,93480.06
2018-05-24T13:42:05.776Z,93478.31
2018-05-24T13:44:32.440Z,93476.72
2018-05-24T13:46:58.990Z,93473.53
2018-05-24T13:49:25.450Z,93473.55
2018-05-24T13:51:51.964Z,93467.09
2018-05-24T13:54:18.488Z,93461.56
2018-05-24T13:56:44.862Z,93460.47
2018-05-24T13:59:11.255Z,93446.53
2018-05-24T14:01:37.923Z,93457.02
2018-05-24T14:04:04.266Z,93462.20
2018-05-24T14:06:30.698Z,93451.14
2018-05-24T14:08:57.080Z,93452.94
2018-05-24T14:11:23.497Z,93451.23
2018-05-24T14:13:49.951Z,93454.07
2018-05-24T14:16:16.417Z,93448.19
2018-05-24T14:18:42.853Z,93451.98
2018-05-24T14:21:09.418Z,93452.77
2018-05-24T14:23:35.817Z,93442.28
2018-05-24T14:26:02.326Z,93452.52
2018-05-24T14:28:28.826Z,93448.75
2018-05-24T14:30:55.343Z,93447.38
2018-05-24T14:33:21.947Z,93440.24
2018-05-24T14:35:48.433Z,93445.94
2018-05-24T14:38:14.943Z,93442.88
2018-05-24T14:40:41.591Z,93450.98
2018-05-24T14:43:08.265Z,93444.59
2018-05-24T14:45:34.923Z,93451.13
2018-05-24T14:48:01.510Z,93443.63
2018-05-24T14:50:28.133Z,93437.41
2018-05-24T14:52:54.536Z,93440.05
2018-05-24T14:55:21.030Z,93433.77
2018-05-24T14:57:47.438Z,93426.41
2018-05-24T15:00:13.893Z,93420.86
2018-05-24T15:02:40.383Z,93413.61
2018-05-24T15:05:06.770Z,93405.98
2018-05-24T15:07:34.505Z,93411.38
2018-05-24T15:10:00.922Z,93407.77
2018-05-24T15:12:27.510Z,93409.61
2018-05-24T15:14:54.205Z,93414.54
2018-05-24T15:17:20.619Z,93413.58
2018-05-24T15:19:47.034Z,93415.20
2018-05-24T15:22:13.445Z,93416.41
2018-05-24T15:24:39.846Z,93409.68
2018-05-24T15:27:06.297Z,93405.25
2018-05-24T15:29:32.689Z,93401.63
2018-05-24T15:31:59.170Z,93402.15
2018-05-24T15:34:25.821Z,93398.17
2018-05-24T15:36:52.423Z,93397.38
2018-05-24T15:39:18.895Z,93401.06
2018-05-24T15:41:45.320Z,93404.38
2018-05-24T15:44:11.757Z,93400.39
2018-05-24T15:46:38.349Z,93395.02
2018-05-24T15:49:04.729Z,93400.05
2018-05-24T15:51:31.240Z,93389.12
2018-05-24T15:53:58.064Z,93402.41
2018-05-24T15:56:24.683Z,93398.88
2018-05-24T15:58:51.227Z,93400.27
2018-05-24T16:01:17.801Z,93400.63
2018-05-24T16:03:44.252Z,93408.05
2018-05-24T16:06:10.805Z,93406.17
2018-05-24T16:08:37.441Z,93416.76
2018-05-24T16:11:04.288Z,93418.59
2018-05-24T16:13:30.966Z,93424.17
2018-05-24T16:15:57.385Z,93422.86
2018-05-24T16:18:23.789Z,93426.70
2018-05-24T16:20:50.249Z,93436.45
2018-05-24T16:23:16.710Z,93438.44
2018-05-24T16:25:43.174Z,93437.00
2018-05-24T16:28:09.579Z,93443.95
2018-05-24T16:30:36.014Z,93447.05
2018-05-24T16:33:02.893Z,93447.73
2018-05-24T16:35:29.479Z,93450.05
2018-05-24T16:37:56.027Z,93455.61
2018-05-24T16:40:23.272Z,93454.77
2018-05-24T16:42:50.084Z,93453.64
2018-05-24T16:45:17.551Z,93457.91
2018-05-24T16:47:45.701Z,93458.86
2018-05-24T16:50:12.403Z,93455.19
2018-05-24T16:52:38.918Z,93460.49
2018-05-24T16:55:05.555Z,93459.63
2018-05-24T16:57:32.134Z,93466.75
2018-05-24T16:59:59.367Z,93463.98
2018-05-24T17:02:26.358Z,93462.13
2018-05-24T17:04:53.260Z,93462.48
2018-05-24T17:07:21.814Z,93464.62
2018-05-24T17:09:49.645Z,93463.25
2018-05-24T17:12:16.588Z,93460.95
2018-05-24T17:14:48.913Z,93469.83
2018-05-24T17:17:15.991Z,93466.23
2018-05-24T17:19:42.842Z,93471.79
2018-05-24T17:22:10.256Z,93472.50
2018-05-24T17:24:37.090Z,93472.70
2018-05-24T17:27:04.375Z,93478.47
2018-05-24T17:29:31.209Z,93478.76
2018-05-24T17:31:58.212Z,93479.38
2018-05-24T17:34:24.892Z,93486.98
2018-05-24T17:36:51.426Z,93488.78
2018-05-24T17:39:18.343Z,93493.84
2018-05-24T17:41:45.154Z,93497.97
2018-05-24T17:44:12.017Z,93498.86
2018-05-24T17:46:38.839Z,93499.69
2018-05-24T17:49:06.320Z,93501.00
2018-05-24T17:51:33.270Z,93507.66
2018-05-24T17:53:59.879Z,93507.16
2018-05-24T17:56:26.512Z,93504.80
2018-05-24T17:58:53.249Z,93509.34
2018-05-24T18:01:19.979Z,93508.59
2018-05-24T18:03:46.595Z,93511.67
2018-05-24T18:06:13.080Z,93512.22
2018-05-24T18:08:39.535Z,93511.14
2018-05-24T18:11:06.069Z,93504.55
2018-05-24T18:13:32.769Z,93505.79
2018-05-24T18:15:59.723Z,93502.67
2018-05-24T18:18:26.362Z,93506.95
2018-05-24T18:20:52.962Z,93506.71
2018-05-24T18:23:19.449Z,93505.24
2018-05-24T18:25:46.050Z,93508.61
2018-05-24T18:28:12.532Z,93509.23
2018-05-24T18:30:39.377Z,93504.84
2018-05-24T18:33:06.188Z,93507.30
2018-05-24T18:35:33.625Z,93510.09
2018-05-24T18:38:00.116Z,93513.28
2018-05-24T18:40:27.137Z,93522.23
2018-05-24T18:42:53.791Z,93515.67
2018-05-24T18:45:20.529Z,93514.08
2018-05-24T18:47:47.214Z,93519.36
2018-05-24T18:50:13.658Z,93517.35
2018-05-24T18:52:40.690Z,93521.89
2018-05-24T18:55:07.455Z,93529.30
2018-05-24T18:57:36.542Z,93531.67
2018-05-24T19:00:03.424Z,93531.06
2018-05-24T19:02:30.563Z,93529.30
2018-05-24T19:04:58.160Z,93523.77
2018-05-24T19:07:24.786Z,93518.52
2018-05-24T19:09:51.367Z,93512.20
2018-05-24T19:12:18.117Z,93517.59
2018-05-24T19:14:44.637Z,93517.70
2018-05-24T19:17:11.066Z,93525.99
2018-05-24T19:19:37.579Z,93536.20
2018-05-24T19:22:05.380Z,93535.35
2018-05-24T19:24:32.124Z,93527.42
2018-05-24T19:26:59.361Z,93533.12
2018-05-24T19:29:26.061Z,93525.70
2018-05-24T19:31:52.662Z,93528.77
2018-05-24T19:34:19.237Z,93533.84
2018-05-24T19:36:45.681Z,93529.41
2018-05-24T19:39:12.161Z,93529.69
2018-05-24T19:41:38.615Z,93523.03
2018-05-24T19:44:05.353Z,93522.45
2018-05-24T19:46:31.896Z,93520.18
2018-05-24T19:48:58.432Z,93514.54
2018-05-24T19:51:25.361Z,93514.02
2018-05-24T19:53:52.167Z,93514.50
2018-05-24T19:56:18.648Z,93519.66
2018-05-24T19:58:45.493Z,93527.28
2018-05-24T20:01:12.224Z,93519.73
2018-05-24T20:03:39.031Z,93523.69
2018-05-24T20:06:05.870Z,93530.19
2018-05-24T20:08:32.503Z,93527.45
2018-05-24T20:10:59.408Z,93518.41
2018-05-24T20:13:26.356Z,93524.86
2018-05-24T20:15:53.005Z,93522.39
2018-05-24T20:18:19.452Z,93525.11
2018-05-24T20:20:45.940Z,93526.64
2018-05-24T20:23:12.687Z,93522.01
2018-05-24T20:25:39.366Z,93520.47
2018-05-24T20:28:05.811Z,93524.20
2018-05-24T20:30:32.354Z,93524.84
2018-05-24T20:32:59.078Z,93523.77
2018-05-24T20:35:25.477Z,93520.84
2018-05-24T20:37:52.004Z,93518.16
2018-05-24T20:40:18.904Z,93525.10
2018-05-24T20:42:45.927Z,93520.72
2018-05-24T20:45:12.636Z,93525.78
2018-05-24T20:47:39.285Z,93532.52
2018-05-24T20:50:05.734Z,93530.87
2018-05-24T20:52:32.300Z,93528.14
2018-05-24T20:54:58.825Z,93527.94
2018-05-24T20:57:25.381Z,93528.80
2018-05-24T20:59:52.219Z,93529.01
2018-05-24T21:02:18.680Z,93542.83
2018-05-24T21:04:45.360Z,93546.05
2018-05-24T21:07:12.010Z,93542.58
2018-05-24T21:09:38.387Z,93540.33
2018-05-24T21:12:04.973Z,93541.06
2018-05-24T21:14:31.669Z,93537.86
2018-05-24T21:16:58.231Z,93540.33
2018-05-24T21:19:24.740Z,93535.21
2018-05-24T21:21:51.318Z,93548.17
2018-05-24T21:24:18.612Z,93542.84
2018-05-24T21:26:45.356Z,93546.31
2018-05-24T21:29:12.247Z,93543.67
2018-05-24T21:31:38.736Z,93543.69
2018-05-24T21:34:05.164Z,93547.17
2018-05-24T21:36:32.086Z,93540.89
2018-05-24T21:38:58.528Z,93535.64
2018-05-24T21:41:24.999Z,93538.66
2018-05-24T21:43:52.354Z,93533.72
2018-05-24T21:46:19.081Z,93531.91
2018-05-24T21:48:45.798Z,93536.23
2018-05-24T21:51:12.608Z,93549.62
2018-05-24T21:53:39.426Z,93556.62
2018-05-24T21:56:05.872Z,93555.36
2018-05-24T21:58:32.284Z,93550.83
2018-05-24T22:00:58.737Z,93547.53
2018-05-24T22:03:25.278Z,93545.95
2018-05-24T22:05:51.808Z,93549.12
2018-05-24T22:08:18.258Z,93549.25
2018-05-24T22:10:44.661Z,93546.09
2018-05-24T22:13:11.126Z,93548.70
2018-05-24T22:15:37.658Z,93542.18
2018-05-24T22:18:04.112Z,93541.84
2018-05-24T22:20:30.649Z,93536.41
2018-05-24T22:22:57.164Z,93537.30
2018-05-24T22:25:23.505Z,93537.55
2018-05-24T22:27:49.914Z,93542.42
2018-05-24T22:30:16.298Z,93545.65
2018-05-24T22:32:42.809Z,93545.27
2018-05-24T22:35:09.363Z,93553.05
2018-05-24T22:37:35.858Z,93551.47
2018-05-24T22:40:02.796Z,93544.98
2018-05-24T22:42:29.253Z,93543.48
2018-05-24T22:44:55.687Z,93533.67
2018-05-24T22:47:22.057Z,93528.42
2018-05-24T22:49:48.474Z,93527.78
2018-05-24T22:52:14.925Z,93528.63
2018-05-24T22:54:41.392Z,93529.83
2018-05-24T22:57:07.879Z,93526.64
2018-05-24T22:59:34.396Z,93530.41
2018-05-24T23:02:00.889Z,93522.18
2018-05-24T23:04:27.474Z,93519.67
2018-05-24T23:06:53.904Z,93519.03
2018-05-24T23:09:20.393Z,93512.52
2018-05-24T23:11:46.926Z,93515.94
2018-05-24T23:14:13.456Z,93512.23
2018-05-24T23:16:40.007Z,93510.23
2018-05-24T23:19:06.421Z,93504.41
2018-05-24T23:21:32.958Z,93508.58
2018-05-24T23:23:59.409Z,93508.78
2018-05-24T23:26:25.829Z,93513.50
2018-05-24T23:28:52.231Z,93505.75
2018-05-24T23:31:18.769Z,93509.45
2018-05-24T23:33:45.406Z,93512.05
2018-05-24T23:36:12.002Z,93509.52
2018-05-24T23:38:38.416Z,93512.01
2018-05-24T23:41:05.005Z,93513.41
2018-05-24T23:43:31.483Z,93506.75
2018-05-24T23:45:57.913Z,93507.84
2018-05-24T23:48:24.508Z,93506.91
2018-05-24T23:50:50.915Z,93509.14
2018-05-24T23:53:17.349Z,93500.81
2018-05-24T23:55:43.777Z,93511.25
2018-05-24T23:58:10.361Z,93507.44
